Time;durP1;ratioP1;P1;durP2;ratioP2;P2;SDS_P1;SDS_P2;PMS_P1;PMS_P2;Temp;Humidity;BMP_temperature;BMP_pressure;BME280_temperature;BME280_humidity;BME280_pressure;Samples;Min_cycle;Max_cycle;Signal;HPM_P1;HPM_P2
2021/12/16 00:01:52;;;;;;;5.03;3.90;;;18.00;70.60;;;;;;5085444;28;20101;-80
2021/12/16 00:34:01;;;;;;;6.57;3.53;;;17.80;70.90;;;;;;5072466;28;20496;-84
2021/12/16 00:36:30;;;;;;;5.18;3.78;;;17.80;70.90;;;;;;5078925;28;20031;-82
2021/12/16 00:38:56;;;;;;;6.60;3.45;;;17.70;70.90;;;;;;5092592;28;20078;-84
2021/12/16 00:41:21;;;;;;;4.60;3.38;;;17.70;70.90;;;;;;5087766;28;20438;-83
2021/12/16 00:43:57;;;;;;;6.78;3.50;;;17.70;70.90;;;;;;5067591;28;20048;-83
2021/12/16 00:54:37;;;;;;;5.72;4.00;;;17.60;71.00;;;;;;5071933;28;20035;-83
2021/12/16 00:57:09;;;;;;;4.68;3.70;;;17.60;71.00;;;;;;5068664;28;20032;-82
2021/12/16 00:59:39;;;;;;;6.10;4.00;;;17.60;71.00;;;;;;5073624;28;20031;-83
2021/12/16 01:02:31;;;;;;;5.90;4.38;;;17.60;71.00;;;;;;5067283;28;20217;-85
2021/12/16 01:35:25;;;;;;;5.45;3.83;;;17.40;71.30;;;;;;5074831;28;20039;-82
2021/12/16 01:51:15;;;;;;;6.03;4.40;;;17.40;71.40;;;;;;5091621;28;20510;-82
2021/12/16 01:56:41;;;;;;;5.00;4.03;;;17.30;71.30;;;;;;5082011;28;20107;-82
2021/12/16 01:59:09;;;;;;;4.80;3.70;;;17.30;71.40;;;;;;5071616;28;20091;-82
2021/12/16 02:01:38;;;;;;;5.47;3.97;;;17.30;71.40;;;;;;5085961;28;20035;-82
2021/12/16 02:04:13;;;;;;;5.50;4.07;;;17.30;71.40;;;;;;5089034;28;20453;-82
2021/12/16 02:09:36;;;;;;;8.15;5.50;;;17.30;71.50;;;;;;5087354;28;20058;-80
2021/12/16 02:12:46;;;;;;;4.90;3.90;;;17.30;71.50;;;;;;5071113;28;20496;-83
2021/12/16 02:36:42;;;;;;;5.05;4.05;;;17.20;71.70;;;;;;5070945;28;20074;-80
2021/12/16 02:39:19;;;;;;;5.10;4.30;;;17.20;71.70;;;;;;5073155;28;20032;-81
2021/12/16 02:41:50;;;;;;;5.68;4.00;;;17.20;71.70;;;;;;5076674;28;20038;-83
2021/12/16 02:44:28;;;;;;;4.90;3.40;;;17.20;71.70;;;;;;5094700;28;20028;-82
2021/12/16 02:49:47;;;;;;;5.13;3.85;;;17.20;71.70;;;;;;5094944;28;20034;-82
2021/12/16 02:52:16;;;;;;;5.60;3.70;;;17.20;71.80;;;;;;5094656;28;20032;-79
2021/12/16 02:54:41;;;;;;;6.28;4.78;;;17.20;71.70;;;;;;5095204;28;20024;-82
2021/12/16 02:57:08;;;;;;;5.57;4.25;;;17.20;71.70;;;;;;5089143;28;20464;-82
2021/12/16 02:59:34;;;;;;;4.47;4.00;;;17.20;71.80;;;;;;5073991;28;20025;-82
2021/12/16 03:02:07;;;;;;;5.75;4.50;;;17.20;71.80;;;;;;5079017;28;20508;-82
2021/12/16 03:04:34;;;;;;;4.78;3.92;;;17.20;71.80;;;;;;5055908;28;20578;-82
2021/12/16 03:07:00;;;;;;;4.88;4.07;;;17.20;72.50;;;;;;5077825;28;20048;-83
2021/12/16 03:14:58;;;;;;;6.82;4.22;;;17.20;71.80;;;;;;5084243;28;20036;-82
2021/12/16 03:17:33;;;;;;;5.07;4.10;;;17.20;71.80;;;;;;5075670;28;20032;-81
2021/12/16 03:20:13;;;;;;;5.93;4.25;;;17.20;71.90;;;;;;5074055;28;20380;-81
2021/12/16 03:25:16;;;;;;;5.60;4.07;;;17.20;71.90;;;;;;5073891;28;20021;-80
2021/12/16 03:30:38;;;;;;;5.38;3.95;;;17.20;71.90;;;;;;5081814;28;20021;-79
2021/12/16 03:38:31;;;;;;;5.75;3.90;;;17.20;71.90;;;;;;5079077;28;20111;-81
2021/12/16 03:40:57;;;;;;;6.40;3.72;;;17.20;71.90;;;;;;5093894;28;20027;-81
2021/12/16 03:43:23;;;;;;;5.88;4.05;;;17.30;71.90;;;;;;5089918;28;20419;-80
2021/12/16 03:48:58;;;;;;;6.15;4.93;;;17.30;72.00;;;;;;5076344;28;20040;-83
2021/12/16 03:51:43;;;;;;;5.03;4.00;;;17.20;71.90;;;;;;5072614;28;20032;-82
2021/12/16 03:54:20;;;;;;;5.55;3.72;;;17.30;71.90;;;;;;5073718;28;20025;-85
2021/12/16 03:56:47;;;;;;;7.18;4.38;;;17.30;71.90;;;;;;5073875;28;20020;-85
2021/12/16 03:59:18;;;;;;;6.47;3.70;;;17.20;71.90;;;;;;5093297;28;20032;-80
2021/12/16 04:01:44;;;;;;;6.05;3.92;;;17.20;71.90;;;;;;5076792;28;20035;-83
2021/12/16 04:04:10;;;;;;;5.07;3.80;;;17.30;72.00;;;;;;5073561;28;20029;-86
2021/12/16 04:06:37;;;;;;;4.68;3.67;;;17.30;72.00;;;;;;5072930;28;20511;-84
2021/12/16 04:09:11;;;;;;;5.68;4.00;;;17.30;72.00;;;;;;5093020;28;20441;-85
2021/12/16 04:11:43;;;;;;;5.25;3.95;;;17.30;72.00;;;;;;5093041;28;20134;-86
2021/12/16 04:14:12;;;;;;;8.07;4.30;;;17.30;72.00;;;;;;5093770;28;20046;-87
2021/12/16 04:16:51;;;;;;;6.05;3.97;;;17.30;72.00;;;;;;5093576;28;20068;-85
2021/12/16 04:19:23;;;;;;;5.47;3.75;;;17.30;72.00;;;;;;5072650;28;20059;-84
2021/12/16 04:22:02;;;;;;;5.60;3.85;;;17.30;72.00;;;;;;5090845;28;20028;-82
2021/12/16 04:24:28;;;;;;;4.82;3.83;;;17.30;72.00;;;;;;5091534;28;20023;-86
2021/12/16 04:26:57;;;;;;;6.00;3.97;;;17.30;72.00;;;;;;5092163;28;20404;-83
2021/12/16 04:29:24;;;;;;;5.88;4.55;;;17.30;72.00;;;;;;5084407;28;20031;-86
2021/12/16 04:31:53;;;;;;;5.05;3.92;;;17.30;72.00;;;;;;5074016;28;20040;-84
2021/12/16 04:34:19;;;;;;;5.95;4.28;;;17.30;72.00;;;;;;5087076;28;20020;-83
2021/12/16 04:36:44;;;;;;;8.00;4.53;;;17.30;72.00;;;;;;5083620;28;20450;-82
2021/12/16 04:39:15;;;;;;;6.28;4.63;;;17.30;72.00;;;;;;5075910;28;20081;-85
2021/12/16 04:41:42;;;;;;;5.55;4.05;;;17.30;72.20;;;;;;5092930;28;20110;-86
2021/12/16 04:44:13;;;;;;;5.53;4.25;;;17.30;72.00;;;;;;5087190;28;20031;-87
2021/12/16 04:46:39;;;;;;;5.60;4.32;;;17.30;72.00;;;;;;5082860;28;20036;-87
2021/12/16 04:49:08;;;;;;;7.18;4.88;;;17.30;72.00;;;;;;5074082;28;20025;-86
2021/12/16 04:51:36;;;;;;;6.60;4.15;;;17.30;72.00;;;;;;5092317;28;20717;-87
2021/12/16 04:54:04;;;;;;;5.38;4.28;;;17.30;72.00;;;;;;5066506;28;20021;-87
2021/12/16 04:56:30;;;;;;;5.70;4.18;;;17.30;72.10;;;;;;5053685;28;20035;-86
2021/12/16 04:58:57;;;;;;;6.63;4.38;;;17.30;72.00;;;;;;5072665;28;20492;-86
2021/12/16 05:01:23;;;;;;;6.35;4.10;;;17.30;72.00;;;;;;5087439;28;20379;-86
2021/12/16 05:03:51;;;;;;;7.03;4.68;;;17.30;72.00;;;;;;5086279;28;20031;-86
2021/12/16 05:06:16;;;;;;;6.65;5.05;;;17.30;72.10;;;;;;5080601;28;20038;-82
2021/12/16 05:08:42;;;;;;;6.57;4.20;;;17.40;72.10;;;;;;5087656;28;20421;-84
2021/12/16 05:11:12;;;;;;;6.30;4.25;;;17.30;72.00;;;;;;5072065;28;20040;-85
2021/12/16 05:13:38;;;;;;;5.82;4.15;;;17.30;72.10;;;;;;5079849;28;20071;-84
2021/12/16 05:16:05;;;;;;;6.70;4.63;;;17.30;72.10;;;;;;5091787;28;20063;-82
2021/12/16 05:18:35;;;;;;;6.15;4.15;;;17.30;72.10;;;;;;5076477;28;20052;-86
2021/12/16 05:21:09;;;;;;;6.45;4.28;;;17.30;72.10;;;;;;5053896;28;20024;-84
2021/12/16 05:26:21;;;;;;;6.05;4.22;;;17.30;72.10;;;;;;5091415;28;20023;-84
2021/12/16 05:28:53;;;;;;;6.43;4.80;;;17.40;72.10;;;;;;5087623;28;20108;-86
2021/12/16 05:31:20;;;;;;;5.18;3.78;;;17.30;72.10;;;;;;5078664;28;20049;-80
2021/12/16 05:33:48;;;;;;;5.47;4.32;;;17.40;72.10;;;;;;5091813;28;20028;-86
2021/12/16 05:36:14;;;;;;;5.78;4.78;;;17.40;72.10;;;;;;5080571;28;20648;-84
2021/12/16 05:38:39;;;;;;;7.57;4.68;;;17.40;72.10;;;;;;5073821;28;20034;-80
2021/12/16 05:41:08;;;;;;;5.53;4.07;;;17.40;72.10;;;;;;5087142;28;20028;-83
2021/12/16 05:43:34;;;;;;;6.95;4.85;;;17.30;72.10;;;;;;5080271;28;20074;-83
2021/12/16 05:46:02;;;;;;;5.80;4.30;;;17.40;72.10;;;;;;5078650;28;20024;-82
2021/12/16 05:48:31;;;;;;;5.85;4.05;;;17.30;72.10;;;;;;5091060;28;20028;-84
2021/12/16 05:51:03;;;;;;;5.63;3.90;;;17.30;72.10;;;;;;5089489;28;20043;-82
2021/12/16 05:53:30;;;;;;;5.60;3.97;;;17.30;72.10;;;;;;5072495;28;20364;-82
2021/12/16 05:55:56;;;;;;;4.93;3.65;;;17.40;72.20;;;;;;5057213;28;20075;-83
2021/12/16 05:58:23;;;;;;;5.32;4.03;;;17.40;72.20;;;;;;5082057;28;20447;-80
2021/12/16 06:00:54;;;;;;;5.03;3.70;;;17.40;72.10;;;;;;5087332;28;20028;-82
2021/12/16 06:03:21;;;;;;;5.00;4.03;;;17.40;72.10;;;;;;5091036;28;20528;-82
2021/12/16 06:05:49;;;;;;;5.50;4.15;;;17.40;72.10;;;;;;5091444;28;20032;-83
2021/12/16 06:08:14;;;;;;;4.68;3.67;;;17.40;72.20;;;;;;5073386;28;20036;-82
2021/12/16 06:13:15;;;;;;;5.78;3.83;;;17.40;72.20;;;;;;5078430;28;20116;-83
2021/12/16 06:28:54;;;;;;;5.32;3.70;;;17.50;72.20;;;;;;5081896;28;20024;-81
2021/12/16 06:31:21;;;;;;;4.78;3.50;;;17.50;72.20;;;;;;5078236;28;20468;-81
2021/12/16 06:33:47;;;;;;;6.57;3.63;;;17.50;72.20;;;;;;5088769;28;20093;-82
2021/12/16 06:36:13;;;;;;;6.38;4.07;;;17.50;72.20;;;;;;5078170;28;20507;-83
2021/12/16 06:38:39;;;;;;;6.05;3.78;;;17.50;72.20;;;;;;5076934;28;20021;-81
2021/12/16 06:41:05;;;;;;;5.35;3.45;;;17.50;72.20;;;;;;5077113;28;20412;-81
2021/12/16 06:43:32;;;;;;;5.07;3.50;;;17.50;72.20;;;;;;5059056;28;20499;-85
2021/12/16 06:46:00;;;;;;;5.22;3.88;;;17.50;72.20;;;;;;5087032;28;20067;-84
2021/12/16 06:48:30;;;;;;;4.75;3.08;;;17.50;72.20;;;;;;5094543;28;20031;-86
2021/12/16 06:51:00;;;;;;;4.70;3.90;;;17.60;72.30;;;;;;5077350;28;20019;-86
2021/12/16 06:53:33;;;;;;;7.78;4.15;;;17.60;72.20;;;;;;5077050;28;20032;-84
2021/12/16 07:03:47;;;;;;;5.13;3.75;;;17.60;72.30;;;;;;5082572;28;20031;-86
2021/12/16 07:06:23;;;;;;;5.20;3.65;;;17.70;72.50;;;;;;5096096;28;20031;-81
2021/12/16 07:08:52;;;;;;;6.35;4.10;;;17.70;72.50;;;;;;5092624;28;20028;-88
2021/12/16 07:11:19;;;;;;;4.80;3.47;;;17.70;72.60;;;;;;5091947;28;20089;-84
2021/12/16 07:13:56;;;;;;;7.35;3.97;;;17.70;72.50;;;;;;5080828;28;20035;-87
2021/12/16 07:16:22;;;;;;;6.90;3.53;;;17.70;72.50;;;;;;5058622;28;20404;-82
2021/12/16 07:18:48;;;;;;;5.20;3.85;;;17.70;72.60;;;;;;5093937;28;20035;-84
2021/12/16 07:21:14;;;;;;;4.25;3.53;;;17.70;72.50;;;;;;5095928;28;20042;-81
2021/12/16 07:23:40;;;;;;;6.40;3.92;;;17.80;72.60;;;;;;5081445;28;20025;-82
2021/12/16 07:26:05;;;;;;;5.45;4.10;;;17.80;73.40;;;;;;5075629;28;20016;-83
2021/12/16 07:28:31;;;;;;;7.22;3.95;;;17.80;72.60;;;;;;5069298;28;20499;-85
2021/12/16 07:30:58;;;;;;;6.80;4.25;;;17.80;72.70;;;;;;5091485;28;20060;-84
2021/12/16 07:33:24;;;;;;;6.00;3.75;;;17.80;72.70;;;;;;5074412;28;20033;-84
2021/12/16 07:35:51;;;;;;;5.25;3.70;;;17.80;72.70;;;;;;5089175;28;20051;-84
2021/12/16 07:38:18;;;;;;;9.45;5.03;;;17.80;72.70;;;;;;5089866;28;20438;-84
2021/12/16 07:40:46;;;;;;;7.85;4.50;;;17.70;72.80;;;;;;5094064;28;20491;-84
2021/12/16 07:43:24;;;;;;;7.93;4.85;;;17.80;72.80;;;;;;5081213;28;20025;-86
2021/12/16 07:45:51;;;;;;;5.72;3.92;;;17.80;72.80;;;;;;5073681;28;20024;-82
2021/12/16 07:48:19;;;;;;;7.43;4.47;;;17.80;72.80;;;;;;5086232;28;20020;-83
2021/12/16 07:50:50;;;;;;;6.78;4.78;;;17.80;73.10;;;;;;5085622;28;20032;-84
2021/12/16 07:53:16;;;;;;;7.75;4.63;;;17.80;72.90;;;;;;5083328;28;20718;-81
2021/12/16 07:55:42;;;;;;;7.43;4.85;;;17.70;72.90;;;;;;5082893;28;20028;-82
2021/12/16 07:58:10;;;;;;;10.30;5.35;;;17.80;73.00;;;;;;5080838;28;20032;-82
2021/12/16 08:00:36;;;;;;;12.68;6.43;;;17.70;73.00;;;;;;5066121;28;20027;-81
2021/12/16 08:03:05;;;;;;;6.95;5.55;;;17.80;73.20;;;;;;5082719;28;20028;-82
2021/12/16 08:05:35;;;;;;;8.43;4.97;;;17.70;73.20;;;;;;5081581;28;20024;-81
2021/12/16 08:08:01;;;;;;;8.35;5.13;;;17.70;73.20;;;;;;5080917;28;20025;-83
2021/12/16 08:10:27;;;;;;;9.13;5.57;;;17.80;73.40;;;;;;5079400;28;20055;-84
2021/12/16 08:12:54;;;;;;;9.82;6.15;;;17.80;73.40;;;;;;5086347;28;20533;-83
2021/12/16 08:15:20;;;;;;;8.95;5.32;;;17.70;73.40;;;;;;5067462;28;20563;-85
2021/12/16 08:17:46;;;;;;;12.63;6.43;;;17.70;73.50;;;;;;5091935;28;20081;-86
2021/12/16 08:20:18;;;;;;;8.25;5.90;;;17.70;73.50;;;;;;5093255;28;20012;-84
2021/12/16 08:22:47;;;;;;;12.18;5.32;;;17.70;73.60;;;;;;5093460;28;20094;-84
2021/12/16 08:25:13;;;;;;;7.45;5.15;;;17.70;73.70;;;;;;5093134;28;20069;-83
2021/12/16 08:27:39;;;;;;;7.75;4.85;;;17.70;73.70;;;;;;5092702;28;20055;-83
2021/12/16 08:30:08;;;;;;;7.50;5.15;;;17.70;73.70;;;;;;5092913;28;20028;-86
2021/12/16 08:32:33;;;;;;;6.95;5.00;;;17.70;73.70;;;;;;5092677;28;20499;-85
2021/12/16 08:34:59;;;;;;;9.07;5.50;;;17.70;73.80;;;;;;5092873;28;20020;-85
2021/12/16 08:37:25;;;;;;;8.32;5.43;;;17.60;73.70;;;;;;5092401;28;20028;-85
2021/12/16 08:39:52;;;;;;;9.18;5.55;;;17.70;73.80;;;;;;5092836;28;20055;-84
2021/12/16 08:42:18;;;;;;;8.20;5.25;;;17.70;73.80;;;;;;5074322;28;20400;-86
2021/12/16 08:44:44;;;;;;;11.23;5.50;;;17.60;73.70;;;;;;5092964;28;20099;-86
2021/12/16 08:47:13;;;;;;;9.38;5.22;;;17.70;73.80;;;;;;5092673;28;20051;-85
2021/12/16 08:49:40;;;;;;;7.65;5.03;;;17.60;73.70;;;;;;5092331;28;20032;-86
2021/12/16 08:52:12;;;;;;;8.60;5.00;;;17.60;73.80;;;;;;5092458;28;20032;-86
2021/12/16 08:54:39;;;;;;;9.70;5.90;;;17.60;73.80;;;;;;5092281;28;20059;-86
2021/12/16 08:57:05;;;;;;;8.77;4.65;;;17.60;73.80;;;;;;5091771;28;20111;-85
2021/12/16 08:59:31;;;;;;;8.13;5.13;;;17.60;73.80;;;;;;5083813;28;20072;-86
2021/12/16 09:01:59;;;;;;;7.47;5.43;;;17.60;73.80;;;;;;5092392;28;20028;-85
2021/12/16 09:04:26;;;;;;;7.10;5.15;;;17.60;73.80;;;;;;5089998;28;20020;-86
2021/12/16 09:06:54;;;;;;;10.77;4.97;;;17.60;73.80;;;;;;5071985;28;20032;-85
2021/12/16 09:09:20;;;;;;;7.82;5.00;;;17.50;73.80;;;;;;5071819;28;20075;-85
2021/12/16 09:12:04;;;;;;;6.90;4.53;;;17.50;73.70;;;;;;5072308;28;20036;-85
2021/12/16 09:14:30;;;;;;;9.05;5.07;;;17.50;73.70;;;;;;5071558;28;20025;-85
2021/12/16 09:16:57;;;;;;;6.20;4.40;;;17.50;73.70;;;;;;5054037;28;20029;-85
2021/12/16 09:19:22;;;;;;;8.45;5.07;;;17.50;73.80;;;;;;5071507;28;20028;-85
2021/12/16 09:21:48;;;;;;;7.43;4.72;;;17.50;73.80;;;;;;5071818;28;20023;-85
2021/12/16 09:24:14;;;;;;;8.55;4.53;;;17.50;73.80;;;;;;5077122;28;20096;-85
2021/12/16 09:26:44;;;;;;;6.60;4.50;;;17.50;73.80;;;;;;5080123;28;20058;-85
2021/12/16 09:29:10;;;;;;;8.10;5.00;;;17.40;73.70;;;;;;5091176;28;20503;-85
2021/12/16 09:31:37;;;;;;;7.07;5.05;;;17.40;73.70;;;;;;5091589;28;20411;-84
2021/12/16 09:34:07;;;;;;;7.82;4.78;;;17.50;73.80;;;;;;5091619;28;20023;-85
2021/12/16 09:36:35;;;;;;;6.50;4.78;;;17.40;73.70;;;;;;5091600;28;20046;-85
2021/12/16 09:39:03;;;;;;;6.93;4.97;;;17.40;73.80;;;;;;5091653;28;20031;-87
2021/12/16 09:41:29;;;;;;;6.85;4.72;;;17.40;73.70;;;;;;5091472;28;20027;-85
2021/12/16 09:43:59;;;;;;;7.40;4.72;;;17.40;73.70;;;;;;5091725;28;20024;-86
2021/12/16 09:46:27;;;;;;;9.35;5.68;;;17.40;73.70;;;;;;5091336;28;20024;-84
2021/12/16 09:48:56;;;;;;;6.95;4.72;;;17.40;73.70;;;;;;5091395;28;20074;-85
2021/12/16 09:51:24;;;;;;;8.30;4.80;;;17.40;73.70;;;;;;5091067;28;20036;-85
2021/12/16 09:53:54;;;;;;;9.70;4.95;;;17.40;73.70;;;;;;5073391;28;20070;-84
2021/12/16 09:56:22;;;;;;;7.32;5.03;;;17.30;73.70;;;;;;5091224;28;20026;-84
2021/12/16 09:58:50;;;;;;;9.60;5.10;;;17.30;73.90;;;;;;5073386;28;20050;-83
2021/12/16 10:01:16;;;;;;;7.70;4.80;;;17.30;73.80;;;;;;5073333;28;20488;-85
2021/12/16 10:03:45;;;;;;;8.07;5.35;;;17.30;73.80;;;;;;5080828;28;20031;-86
2021/12/16 10:06:11;;;;;;;7.70;4.70;;;17.30;73.90;;;;;;5078553;28;20485;-87
2021/12/16 10:08:36;;;;;;;6.97;4.88;;;17.30;73.90;;;;;;5090540;28;20027;-88
2021/12/16 10:11:05;;;;;;;8.48;5.25;;;17.30;73.90;;;;;;5091247;28;20488;-88
2021/12/16 10:13:46;;;;;;;7.80;5.30;;;17.30;73.90;;;;;;5068255;28;20498;-87
2021/12/16 10:18:57;;;;;;;11.48;5.13;;;17.30;74.00;;;;;;5080371;28;20031;-89
2021/12/16 10:21:23;;;;;;;10.05;5.72;;;17.30;74.00;;;;;;5078340;28;20028;-89
2021/12/16 10:23:49;;;;;;;9.77;4.95;;;17.30;74.00;;;;;;5078591;28;20033;-88
2021/12/16 10:26:18;;;;;;;8.73;5.10;;;17.20;74.00;;;;;;5061853;28;20400;-88
2021/12/16 10:28:52;;;;;;;8.55;5.13;;;17.20;74.00;;;;;;5057931;28;20439;-89
2021/12/16 10:31:35;;;;;;;7.72;5.00;;;17.20;74.00;;;;;;5070798;28;20029;-86
2021/12/16 10:34:07;;;;;;;8.75;5.82;;;17.20;74.00;;;;;;5075816;28;20492;-86
2021/12/16 10:36:39;;;;;;;9.13;4.80;;;17.20;74.00;;;;;;5090871;28;20024;-86
2021/12/16 10:39:11;;;;;;;9.88;5.10;;;17.20;74.00;;;;;;5090939;28;20055;-86
2021/12/16 10:41:41;;;;;;;7.93;5.00;;;17.20;74.00;;;;;;5090812;28;20024;-86
2021/12/16 10:44:14;;;;;;;7.07;4.70;;;17.20;74.00;;;;;;5090940;28;20395;-87
2021/12/16 10:46:44;;;;;;;8.73;4.78;;;17.20;74.00;;;;;;5090659;28;20531;-87
2021/12/16 10:49:16;;;;;;;8.63;5.43;;;17.20;74.00;;;;;;5090818;28;20058;-86
2021/12/16 10:51:48;;;;;;;8.88;5.45;;;17.20;74.00;;;;;;5090668;28;20420;-87
2021/12/16 10:54:34;;;;;;;7.82;5.05;;;17.20;74.00;;;;;;5091263;28;20025;-87
2021/12/16 10:57:15;;;;;;;8.85;5.75;;;17.10;73.90;;;;;;5072768;28;20537;-88
2021/12/16 10:59:53;;;;;;;9.60;5.80;;;17.20;74.00;;;;;;5090185;28;20083;-86
2021/12/16 11:02:22;;;;;;;7.75;5.75;;;17.10;73.90;;;;;;5058694;28;20037;-88
2021/12/16 11:04:47;;;;;;;8.70;5.43;;;17.10;74.00;;;;;;5074708;28;20082;-87
2021/12/16 11:07:16;;;;;;;8.68;5.70;;;17.10;74.00;;;;;;5056723;28;20028;-87
2021/12/16 11:10:05;;;;;;;8.93;5.53;;;17.10;74.00;;;;;;5073903;28;20434;-88
2021/12/16 11:12:34;;;;;;;8.05;5.70;;;17.10;74.00;;;;;;5055862;28;20115;-87
2021/12/16 11:15:14;;;;;;;9.50;5.97;;;17.10;74.00;;;;;;5081405;28;20020;-87
2021/12/16 11:18:02;;;;;;;8.35;5.53;;;17.10;74.00;;;;;;5083436;28;20025;-86
2021/12/16 11:20:36;;;;;;;9.23;5.88;;;17.00;74.00;;;;;;5081881;28;20024;-87
2021/12/16 11:23:16;;;;;;;6.78;4.68;;;17.10;74.00;;;;;;5090742;28;20024;-86
2021/12/16 11:25:44;;;;;;;8.20;5.68;;;17.10;74.00;;;;;;5055857;28;20116;-86
2021/12/16 11:28:20;;;;;;;9.82;5.30;;;17.10;74.00;;;;;;5074038;28;20082;-86
2021/12/16 11:30:46;;;;;;;7.45;5.35;;;17.10;74.00;;;;;;5082532;28;20016;-88
2021/12/16 11:33:26;;;;;;;8.50;5.88;;;17.00;74.00;;;;;;5081917;28;20085;-85
2021/12/16 11:35:56;;;;;;;10.32;5.32;;;17.10;74.00;;;;;;5081675;28;20020;-85
2021/12/16 11:38:38;;;;;;;10.73;6.22;;;17.00;74.10;;;;;;5081585;28;20024;-85
2021/12/16 11:41:19;;;;;;;10.63;5.57;;;17.00;74.10;;;;;;5088848;28;20028;-86
2021/12/16 11:43:54;;;;;;;9.68;5.57;;;17.10;74.40;;;;;;5085259;28;20051;-85
2021/12/16 11:46:39;;;;;;;7.30;4.93;;;17.10;74.30;;;;;;5079430;28;20103;-86
2021/12/16 11:49:14;;;;;;;7.65;5.43;;;17.10;74.30;;;;;;5071704;28;20074;-87
2021/12/16 11:51:54;;;;;;;9.80;4.78;;;17.20;74.30;;;;;;5073119;28;20040;-85
2021/12/16 11:54:28;;;;;;;8.13;5.22;;;17.20;74.20;;;;;;5054890;28;20504;-86
2021/12/16 11:57:15;;;;;;;7.78;4.57;;;17.30;74.30;;;;;;5073167;28;20043;-87
2021/12/16 11:59:55;;;;;;;8.50;5.78;;;17.30;74.30;;;;;;5061649;28;20031;-86
2021/12/16 12:02:28;;;;;;;8.57;4.93;;;17.30;74.90;;;;;;5079652;28;20032;-87
2021/12/16 12:05:16;;;;;;;7.47;5.47;;;17.40;74.20;;;;;;5055274;28;20048;-86
2021/12/16 12:07:44;;;;;;;8.40;5.20;;;17.40;74.20;;;;;;5072740;28;20029;-85
2021/12/16 12:10:10;;;;;;;8.65;5.25;;;17.40;74.10;;;;;;5088680;28;20424;-87
2021/12/16 12:12:48;;;;;;;8.55;5.22;;;17.50;74.10;;;;;;5079548;28;20044;-84
2021/12/16 12:15:16;;;;;;;7.57;5.30;;;17.50;74.00;;;;;;5080876;28;20481;-83
2021/12/16 12:17:55;;;;;;;7.70;4.30;;;17.50;74.00;;;;;;5082175;28;20024;-86
2021/12/16 12:20:30;;;;;;;12.60;5.70;;;17.60;74.20;;;;;;5062192;28;20019;-86
2021/12/16 12:22:56;;;;;;;9.45;5.05;;;17.70;74.20;;;;;;5080310;28;20028;-84
2021/12/16 12:25:22;;;;;;;7.25;5.13;;;17.80;74.10;;;;;;5082111;28;20046;-88
2021/12/16 12:27:47;;;;;;;7.15;4.68;;;17.80;74.00;;;;;;5079984;28;20025;-88
2021/12/16 12:30:14;;;;;;;8.93;5.07;;;17.90;73.90;;;;;;5081943;28;20079;-87
2021/12/16 12:32:43;;;;;;;10.90;5.57;;;17.90;73.80;;;;;;5080192;28;20110;-84
2021/12/16 12:35:11;;;;;;;8.55;5.85;;;18.00;73.70;;;;;;5081819;28;20104;-85
2021/12/16 12:37:44;;;;;;;9.35;4.75;;;18.00;73.60;;;;;;5063171;28;20099;-87
2021/12/16 12:40:21;;;;;;;8.65;5.95;;;18.00;73.50;;;;;;5080450;28;20047;-87
2021/12/16 12:42:48;;;;;;;11.85;6.88;;;18.10;73.50;;;;;;5080297;28;20495;-88
2021/12/16 12:45:17;;;;;;;11.50;6.22;;;18.10;73.60;;;;;;5081225;28;20498;-86
2021/12/16 12:47:46;;;;;;;10.02;6.10;;;18.10;73.40;;;;;;5082072;28;20059;-84
2021/12/16 12:50:35;;;;;;;10.20;5.60;;;18.20;73.40;;;;;;5080435;28;20024;-82
2021/12/16 12:53:19;;;;;;;14.02;7.88;;;18.20;73.40;;;;;;5081683;28;20086;-85
2021/12/16 12:55:46;;;;;;;9.70;6.50;;;18.30;73.40;;;;;;5081852;28;20020;-82
2021/12/16 12:58:18;;;;;;;12.38;7.45;;;18.30;73.40;;;;;;5080539;28;20033;-82
2021/12/16 13:00:57;;;;;;;12.48;6.68;;;18.30;73.30;;;;;;5079742;28;20059;-82
2021/12/16 13:03:33;;;;;;;11.90;6.20;;;18.30;73.30;;;;;;5079119;28;20029;-85
2021/12/16 13:06:00;;;;;;;11.63;6.90;;;18.40;73.30;;;;;;5080042;28;20024;-85
2021/12/16 13:08:29;;;;;;;8.77;5.63;;;18.40;73.30;;;;;;5081253;28;20066;-85
2021/12/16 13:11:04;;;;;;;11.68;6.68;;;18.50;73.40;;;;;;5080339;28;20465;-82
2021/12/16 13:13:34;;;;;;;12.87;5.77;;;18.50;73.40;;;;;;5079497;28;20024;-84
2021/12/16 13:24:53;;;;;;;9.65;6.03;;;18.60;73.20;;;;;;5080025;28;20145;-83
2021/12/16 13:32:40;;;;;;;9.10;4.53;;;18.70;73.10;;;;;;5073510;28;20046;-83
2021/12/16 13:37:55;;;;;;;9.98;5.50;;;18.70;73.00;;;;;;5079162;28;20028;-86
2021/12/16 13:40:23;;;;;;;8.02;5.07;;;18.80;72.90;;;;;;5070956;28;20077;-84
2021/12/16 13:42:59;;;;;;;9.93;4.57;;;18.80;73.00;;;;;;5084952;28;20020;-82
2021/12/16 13:45:29;;;;;;;8.40;5.28;;;18.80;72.90;;;;;;5088811;28;20072;-84
2021/12/16 13:48:30;;;;;;;9.20;5.72;;;18.70;72.70;;;;;;5059987;28;20020;-86
2021/12/16 14:01:03;;;;;;;6.75;4.78;;;18.70;72.70;;;;;;5091232;28;20038;-84
2021/12/16 14:05:42;;;;;;;8.13;5.13;;;18.60;72.60;;;;;;5091212;28;20027;-82
2021/12/16 14:08:12;;;;;;;8.73;4.50;;;18.60;72.60;;;;;;5086976;28;20492;-83
2021/12/16 14:11:05;;;;;;;7.07;5.13;;;18.60;72.70;;;;;;5090442;28;20111;-84
2021/12/16 14:25:11;;;;;;;6.65;4.50;;;18.50;72.70;;;;;;5086940;28;20074;-87
2021/12/16 14:36:28;;;;;;;8.43;4.65;;;18.40;72.60;;;;;;5091445;28;20218;-82
2021/12/16 14:47:27;;;;;;;6.32;4.75;;;18.30;72.50;;;;;;5066130;28;20032;-83
2021/12/16 14:49:53;;;;;;;6.10;4.43;;;18.30;72.80;;;;;;5076638;28;20035;-86
2021/12/16 14:52:24;;;;;;;9.18;5.22;;;18.30;72.50;;;;;;5076388;28;20040;-83
2021/12/16 14:54:55;;;;;;;8.63;4.80;;;18.20;72.40;;;;;;5094993;28;20024;-87
2021/12/16 14:57:31;;;;;;;8.75;5.57;;;18.20;73.10;;;;;;5094619;28;20471;-88
2021/12/16 14:59:57;;;;;;;6.57;4.60;;;18.20;72.40;;;;;;5076403;28;20043;-88
2021/12/16 15:02:28;;;;;;;7.05;4.63;;;18.20;72.40;;;;;;5076387;28;20016;-88
2021/12/16 15:04:54;;;;;;;10.43;4.75;;;18.20;72.40;;;;;;5094846;28;20028;-87
2021/12/16 15:07:22;;;;;;;7.50;4.63;;;18.10;72.40;;;;;;5094219;28;20024;-86
2021/12/16 15:09:48;;;;;;;6.95;4.45;;;18.20;72.40;;;;;;5094812;28;20048;-82
2021/12/16 15:12:26;;;;;;;6.47;4.78;;;18.10;72.40;;;;;;5076505;28;20116;-85
2021/12/16 15:45:04;;;;;;;7.97;5.00;;;17.90;72.40;;;;;;5094404;28;20031;-86
2021/12/16 15:47:29;;;;;;;7.85;5.40;;;17.90;72.50;;;;;;5093246;28;20389;-89
2021/12/16 15:49:56;;;;;;;8.95;5.50;;;17.90;72.60;;;;;;5066511;28;20511;-89
2021/12/16 15:52:22;;;;;;;10.02;5.82;;;17.90;72.80;;;;;;5082710;28;20135;-88
2021/12/16 15:54:51;;;;;;;8.43;5.82;;;17.90;72.80;;;;;;5081997;28;20095;-85
2021/12/16 15:57:22;;;;;;;9.85;5.75;;;17.90;72.90;;;;;;5065419;28;20016;-87
2021/12/16 15:59:48;;;;;;;9.27;5.50;;;17.90;72.90;;;;;;5082646;28;20034;-87
2021/12/16 16:02:18;;;;;;;7.90;5.53;;;17.90;73.20;;;;;;5081624;28;20021;-89
2021/12/16 16:04:44;;;;;;;7.00;5.20;;;17.80;72.80;;;;;;5066381;28;20111;-83
2021/12/16 16:07:13;;;;;;;8.52;5.47;;;17.80;72.90;;;;;;5084032;28;20108;-89
2021/12/16 16:09:46;;;;;;;9.00;5.38;;;17.80;72.90;;;;;;5080624;28;20431;-88
2021/12/16 16:12:17;;;;;;;10.73;5.53;;;17.80;72.90;;;;;;5062901;28;20453;-89
2021/12/16 16:14:49;;;;;;;7.68;5.53;;;17.80;73.00;;;;;;5082127;28;20043;-91
2021/12/16 16:17:18;;;;;;;9.18;6.15;;;17.80;73.00;;;;;;5078247;28;20052;-87
2021/12/16 16:19:47;;;;;;;10.60;6.40;;;17.70;73.00;;;;;;5073664;28;20055;-86
2021/12/16 16:22:13;;;;;;;9.40;5.47;;;17.70;72.90;;;;;;5073613;28;20111;-90
2021/12/16 16:24:42;;;;;;;9.55;6.72;;;17.70;73.00;;;;;;5055515;28;20056;-91
2021/12/16 16:27:18;;;;;;;9.40;5.72;;;17.70;73.00;;;;;;5073726;28;20037;-90
2021/12/16 16:29:47;;;;;;;7.88;5.75;;;17.70;73.10;;;;;;5073763;28;20033;-89
2021/12/16 16:32:14;;;;;;;11.05;6.45;;;17.70;73.10;;;;;;5073826;28;20477;-91
2021/12/16 16:34:46;;;;;;;8.90;5.93;;;17.70;73.10;;;;;;5073066;28;20032;-91
2021/12/16 16:37:20;;;;;;;8.77;5.82;;;17.70;73.10;;;;;;5054971;28;20499;-89
2021/12/16 16:39:52;;;;;;;7.53;5.25;;;17.60;73.10;;;;;;5073689;28;20031;-89
2021/12/16 16:42:18;;;;;;;11.57;6.00;;;17.60;73.10;;;;;;5073103;28;20024;-83
2021/12/16 16:44:53;;;;;;;8.70;6.13;;;17.60;73.10;;;;;;5073240;28;20073;-85
2021/12/16 16:47:33;;;;;;;8.98;5.97;;;17.60;73.20;;;;;;5072392;28;20028;-85
2021/12/16 16:49:59;;;;;;;9.45;5.97;;;17.60;73.20;;;;;;5072438;28;20056;-86
2021/12/16 16:52:29;;;;;;;9.68;5.97;;;17.60;73.20;;;;;;5071901;28;20037;-85
2021/12/16 16:55:21;;;;;;;10.48;7.25;;;17.60;73.20;;;;;;5054289;28;20027;-82
2021/12/16 16:57:49;;;;;;;11.77;8.90;;;17.50;73.30;;;;;;5090104;28;20020;-81
2021/12/16 17:00:35;;;;;;;9.35;7.80;;;17.60;73.60;;;;;;5089140;28;20040;-85
2021/12/16 17:03:05;;;;;;;8.65;6.65;;;17.60;73.70;;;;;;5074283;28;20023;-86
2021/12/16 17:05:32;;;;;;;10.90;7.78;;;17.70;73.70;;;;;;5091693;28;20031;-86
2021/12/16 17:08:05;;;;;;;11.10;7.07;;;17.80;73.70;;;;;;5091279;28;20478;-84
2021/12/16 17:10:44;;;;;;;10.38;6.85;;;17.90;73.70;;;;;;5092017;28;20460;-83